Time;durP1;ratioP1;P1;durP2;ratioP2;P2;SDS_P1;SDS_P2;PMS_P1;PMS_P2;Temp;Humidity;BMP_temperature;BMP_pressure;BME280_temperature;BME280_humidity;BME280_pressure;Samples;Min_cycle;Max_cycle;Signal;HPM_P1;HPM_P2
2021/09/18 00:02:18;;;;;;;0.97;0.60;;;;;;;14.38;91.20;100887.28;5039319;28;20443;-78
2021/09/18 00:04:44;;;;;;;0.60;0.57;;;;;;;14.38;91.26;100886.47;5039065;28;20483;-78
2021/09/18 00:07:11;;;;;;;0.73;0.60;;;;;;;14.36;91.34;100884.09;5039093;28;20436;-78
2021/09/18 00:09:37;;;;;;;7.23;1.53;;;;;;;14.41;91.37;100888.56;5039335;28;20447;-78
2021/09/18 00:12:04;;;;;;;1.47;0.83;;;;;;;14.40;91.20;100886.97;5039132;28;20463;-78
2021/09/18 00:14:32;;;;;;;0.80;0.60;;;;;;;14.42;91.64;100887.44;5039741;28;20450;-78
2021/09/18 00:16:59;;;;;;;0.57;0.50;;;;;;;14.44;91.08;100885.22;5039268;28;20435;-80
2021/09/18 00:19:26;;;;;;;1.13;0.80;;;;;;;14.46;91.13;100882.16;5038615;28;20975;-78
2021/09/18 00:21:52;;;;;;;0.93;0.50;;;;;;;14.48;91.78;100888.94;5039092;28;20464;-78
2021/09/18 00:24:18;;;;;;;0.70;0.70;;;;;;;14.48;91.62;100888.13;5036096;28;20462;-77
2021/09/18 00:26:45;;;;;;;0.90;0.60;;;;;;;14.46;90.74;100884.88;5035826;28;20941;-78
2021/09/18 00:29:11;;;;;;;1.37;0.90;;;;;;;14.43;91.09;100882.78;5039601;28;20820;-78
2021/09/18 00:31:39;;;;;;;0.70;0.60;;;;;;;14.44;90.73;100878.97;5042892;28;20458;-78
2021/09/18 00:34:06;;;;;;;0.67;0.57;;;;;;;14.44;90.61;100882.50;5040805;28;20454;-78
2021/09/18 00:36:32;;;;;;;1.17;0.70;;;;;;;14.44;90.79;100884.41;5039017;28;20452;-78
2021/09/18 00:38:59;;;;;;;3.00;0.97;;;;;;;14.39;91.48;100888.91;5038623;28;20455;-79
2021/09/18 00:41:25;;;;;;;1.20;0.70;;;;;;;14.39;92.08;100888.09;5038409;28;20459;-78
2021/09/18 00:43:53;;;;;;;1.73;1.00;;;;;;;14.41;91.96;100890.50;5039340;28;20451;-78
2021/09/18 00:46:20;;;;;;;1.37;1.00;;;;;;;14.38;92.45;100892.72;5053234;28;20496;-80
2021/09/18 00:48:48;;;;;;;1.27;0.80;;;;;;;14.40;92.16;100897.88;5056462;28;20447;-81
2021/09/18 00:51:15;;;;;;;1.67;0.67;;;;;;;14.39;92.21;100893.56;5056486;28;20818;-80
2021/09/18 00:53:42;;;;;;;0.87;0.70;;;;;;;14.39;92.17;100882.66;5057133;28;20443;-81
2021/09/18 00:56:08;;;;;;;0.60;0.60;;;;;;;14.38;92.57;100892.72;5057022;28;20446;-81
2021/09/18 00:58:35;;;;;;;1.17;0.80;;;;;;;14.39;93.09;100902.53;5058573;28;20446;-78
2021/09/18 01:01:01;;;;;;;1.10;0.50;;;;;;;14.41;93.01;100901.41;5062439;28;20467;-77
2021/09/18 01:03:28;;;;;;;0.50;0.50;;;;;;;14.40;93.48;100897.88;5055279;28;20831;-78
2021/09/18 01:05:57;;;;;;;1.20;0.80;;;;;;;14.42;92.61;100898.34;5057216;28;20493;-78
2021/09/18 01:08:27;;;;;;;1.03;0.77;;;;;;;14.37;93.41;100893.84;5057246;28;20542;-77
2021/09/18 01:10:54;;;;;;;0.60;0.50;;;;;;;14.35;93.23;100898.84;5056542;28;20458;-78
2021/09/18 01:13:21;;;;;;;0.77;0.60;;;;;;;14.39;93.20;100893.56;5058846;28;20445;-78
2021/09/18 01:15:48;;;;;;;0.80;0.60;;;;;;;14.32;93.31;100894.00;5060714;28;20427;-78
2021/09/18 01:18:16;;;;;;;0.80;0.60;;;;;;;14.34;93.24;100897.25;5056410;28;20454;-77
2021/09/18 01:20:46;;;;;;;0.97;0.60;;;;;;;14.28;93.97;100893.03;5054216;28;20469;-77
2021/09/18 01:23:17;;;;;;;0.70;0.60;;;;;;;14.27;93.24;100891.44;5054163;28;20441;-77
2021/09/18 01:25:44;;;;;;;0.70;0.70;;;;;;;14.29;93.48;100888.41;5053885;28;20474;-77
2021/09/18 01:28:10;;;;;;;0.70;0.70;;;;;;;14.27;93.89;100891.44;5054013;28;20803;-77
2021/09/18 01:30:37;;;;;;;0.67;0.60;;;;;;;14.22;93.60;100888.88;5054038;28;20466;-77
2021/09/18 01:33:06;;;;;;;10.87;1.20;;;;;;;14.17;94.22;100886.31;5054818;28;20454;-80
2021/09/18 01:35:33;;;;;;;1.13;0.90;;;;;;;14.25;94.40;100892.88;5056169;28;20442;-80
2021/09/18 01:38:00;;;;;;;1.00;0.90;;;;;;;14.30;93.84;100888.09;5056111;28;20959;-81
2021/09/18 01:40:31;;;;;;;0.63;0.60;;;;;;;14.27;93.83;100882.47;5055824;28;20457;-80
2021/09/18 01:42:59;;;;;;;1.03;0.90;;;;;;;14.23;94.12;100885.03;5056292;28;20430;-81
2021/09/18 01:45:27;;;;;;;0.50;0.50;;;;;;;14.24;94.79;100885.81;5056434;28;20474;-80
2021/09/18 01:47:56;;;;;;;1.30;0.60;;;;;;;14.27;94.54;100875.09;5056310;28;20454;-81
2021/09/18 01:50:28;;;;;;;0.77;0.77;;;;;;;14.27;95.12;100886.00;5055375;28;20458;-77
2021/09/18 01:52:56;;;;;;;1.80;0.50;;;;;;;14.26;95.01;100886.31;5054158;28;20445;-77
2021/09/18 01:55:23;;;;;;;1.27;0.73;;;;;;;14.24;95.01;100878.44;5053858;28;20438;-78
2021/09/18 01:57:52;;;;;;;0.80;0.60;;;;;;;14.28;94.82;100882.16;5054210;28;20445;-78
2021/09/18 02:00:20;;;;;;;1.57;0.93;;;;;;;14.30;95.30;100884.56;5053890;28;20814;-78
2021/09/18 02:02:47;;;;;;;1.10;0.80;;;;;;;14.30;94.80;100879.91;5054400;28;20446;-77
2021/09/18 02:05:18;;;;;;;1.10;0.70;;;;;;;14.27;94.85;100879.75;5056938;28;20991;-77
2021/09/18 02:07:45;;;;;;;0.50;0.50;;;;;;;14.26;95.13;100875.44;5057799;28;20438;-78
2021/09/18 02:10:13;;;;;;;0.73;0.60;;;;;;;14.28;95.22;100882.16;5057211;28;20865;-77
2021/09/18 02:12:40;;;;;;;0.60;0.60;;;;;;;14.24;94.98;100878.44;5056892;28;20971;-78
2021/09/18 02:15:11;;;;;;;1.13;0.87;;;;;;;14.24;95.15;100885.81;5056986;28;20950;-77
2021/09/18 02:17:39;;;;;;;0.60;0.60;;;;;;;14.21;95.35;100889.19;5057537;28;20500;-78
2021/09/18 02:20:08;;;;;;;0.83;0.83;;;;;;;14.24;95.26;100886.63;5061095;28;20474;-78
2021/09/18 02:22:34;;;;;;;3.43;0.63;;;;;;;14.30;95.17;100884.56;5061515;28;20454;-78
2021/09/18 02:25:01;;;;;;;0.70;0.43;;;;;;;14.30;95.42;100879.91;5061505;28;20513;-78
2021/09/18 02:27:27;;;;;;;5.93;0.73;;;;;;;14.32;95.56;100885.84;5060914;28;20457;-78
2021/09/18 02:29:54;;;;;;;1.00;0.73;;;;;;;14.35;95.10;100876.25;5060530;28;20442;-77
2021/09/18 02:32:22;;;;;;;0.60;0.60;;;;;;;14.30;95.02;100890.81;5059097;28;20472;-77
2021/09/18 02:34:48;;;;;;;1.17;0.80;;;;;;;14.27;95.57;100879.75;5058700;28;20442;-78
2021/09/18 02:37:15;;;;;;;0.70;0.60;;;;;;;14.23;95.11;100879.56;5058886;28;20449;-78
2021/09/18 02:39:42;;;;;;;1.40;0.93;;;;;;;14.26;95.38;100878.94;5059168;28;20448;-78
2021/09/18 02:42:09;;;;;;;0.83;0.70;;;;;;;14.28;95.55;100884.88;5056944;28;20462;-77
2021/09/18 02:44:35;;;;;;;1.23;0.87;;;;;;;14.25;95.56;100877.31;5058929;28;20466;-77
2021/09/18 02:47:02;;;;;;;1.00;0.73;;;;;;;14.23;96.10;100882.31;5056815;28;20841;-77
2021/09/18 02:49:30;;;;;;;0.80;0.70;;;;;;;14.26;96.05;100876.22;5056884;28;20446;-77
2021/09/18 02:51:56;;;;;;;0.60;0.60;;;;;;;14.26;96.29;100878.94;5057462;28;20532;-77
2021/09/18 02:54:23;;;;;;;0.80;0.67;;;;;;;14.31;96.04;100873.34;5057083;28;21009;-77
2021/09/18 02:56:49;;;;;;;4.30;0.77;;;;;;;14.30;96.13;100877.19;5058089;28;20438;-77
2021/09/18 02:59:16;;;;;;;1.80;1.20;;;;;;;14.31;95.99;100876.06;5057410;28;20446;-77
2021/09/18 03:01:42;;;;;;;1.43;0.93;;;;;;;14.35;96.07;100877.03;5056995;28;20972;-77
2021/09/18 03:04:09;;;;;;;0.93;0.70;;;;;;;14.22;96.42;100867.09;5058014;28;20446;-77
2021/09/18 03:06:36;;;;;;;0.80;0.80;;;;;;;14.28;96.21;100865.78;5058062;28;20489;-77
2021/09/18 03:09:03;;;;;;;1.60;1.27;;;;;;;14.27;96.37;100861.47;5058606;28;20446;-77
2021/09/18 03:11:29;;;;;;;2.37;0.83;;;;;;;14.27;96.74;100866.13;5056618;28;20983;-77
2021/09/18 03:13:56;;;;;;;0.73;0.73;;;;;;;14.21;97.14;100867.38;5056237;28;20458;-77
2021/09/18 03:16:22;;;;;;;1.57;1.27;;;;;;;14.21;97.06;100868.22;5058029;28;20441;-78
2021/09/18 03:18:49;;;;;;;1.03;0.87;;;;;;;14.18;97.26;100868.84;5057460;28;20454;-80
2021/09/18 03:21:15;;;;;;;1.77;0.87;;;;;;;14.24;97.18;100872.19;5058334;28;20461;-81
2021/09/18 03:23:43;;;;;;;1.03;0.70;;;;;;;14.27;96.64;100866.91;5057626;28;20434;-80
2021/09/18 03:26:10;;;;;;;0.60;0.60;;;;;;;14.25;96.53;100866.41;5058946;28;20486;-78
2021/09/18 03:28:36;;;;;;;1.43;1.00;;;;;;;14.27;97.41;100860.69;5060050;28;20457;-77
2021/09/18 03:31:03;;;;;;;5.63;1.17;;;;;;;14.26;97.08;100873.50;5059407;28;20481;-77
2021/09/18 03:33:30;;;;;;;0.80;0.80;;;;;;;14.29;97.04;100870.13;5058972;28;20537;-78
2021/09/18 03:35:56;;;;;;;0.70;0.70;;;;;;;14.28;97.38;100863.06;5060274;28;20465;-77
2021/09/18 03:38:23;;;;;;;2.00;0.80;;;;;;;14.22;97.54;100867.09;5057879;28;20457;-78
2021/09/18 03:40:50;;;;;;;0.90;0.73;;;;;;;14.15;98.14;100861.28;5058072;28;20473;-77
2021/09/18 03:43:17;;;;;;;1.10;0.90;;;;;;;14.16;98.19;100862.88;5058557;28;20446;-78
2021/09/18 03:45:43;;;;;;;1.37;1.00;;;;;;;14.21;98.09;100865.47;5057321;28;20475;-78
2021/09/18 03:48:10;;;;;;;0.90;0.90;;;;;;;14.22;98.46;100860.84;5058183;28;20453;-78
2021/09/18 03:50:36;;;;;;;0.90;0.90;;;;;;;14.28;98.34;100862.28;5058450;28;20465;-78
2021/09/18 03:53:03;;;;;;;0.97;0.80;;;;;;;14.32;98.49;100860.50;5058488;28;20441;-78
2021/09/18 03:58:53;;;;;;;1.07;0.90;;;;;;;13.88;100.00;100862.34;5057932;28;20394;-78
2021/09/18 04:01:19;;;;;;;1.00;0.70;;;;;;;13.87;100.00;100871.66;5058563;28;20466;-77
2021/09/18 04:03:46;;;;;;;1.00;0.90;;;;;;;13.89;100.00;100866.69;5058558;28;20474;-78
2021/09/18 04:06:12;;;;;;;1.40;1.30;;;;;;;13.92;100.00;100866.06;5059174;28;20486;-78
2021/09/18 04:08:38;;;;;;;2.30;1.10;;;;;;;13.97;100.00;100865.09;5058735;28;20453;-78
2021/09/18 04:11:05;;;;;;;1.73;1.00;;;;;;;13.95;100.00;100865.44;5058345;28;20466;-78
2021/09/18 04:13:31;;;;;;;2.10;1.10;;;;;;;13.92;100.00;100867.97;5059291;28;20449;-78
2021/09/18 04:15:59;;;;;;;3.97;2.00;;;;;;;13.91;100.00;100863.66;5057972;28;20458;-78
2021/09/18 04:18:26;;;;;;;3.13;1.70;;;;;;;13.87;100.00;100866.19;5058388;28;20492;-77
2021/09/18 04:20:52;;;;;;;6.10;1.27;;;;;;;13.85;100.00;100869.22;5059328;28;20470;-78
2021/09/18 04:23:19;;;;;;;1.93;1.50;;;;;;;13.90;100.00;100860.13;5058479;28;20442;-78
2021/09/18 04:25:45;;;;;;;5.40;0.90;;;;;;;13.85;100.00;100863.78;5057711;28;20486;-78
2021/09/18 04:28:12;;;;;;;2.30;1.00;;;;;;;13.83;100.00;100860.56;5057111;28;20451;-78
2021/09/18 04:30:38;;;;;;;2.47;1.27;;;;;;;13.87;100.00;100858.03;5055828;28;20559;-79
2021/09/18 04:33:06;;;;;;;1.90;0.87;;;;;;;13.89;100.00;100867.47;5056625;28;20431;-80
2021/09/18 04:35:33;;;;;;;1.83;1.57;;;;;;;13.90;100.00;100857.41;5057507;28;20453;-80
2021/09/18 04:37:59;;;;;;;3.73;1.40;;;;;;;13.93;100.00;100869.56;5058838;28;20442;-78
2021/09/18 04:40:26;;;;;;;2.40;1.23;;;;;;;13.83;100.00;100863.31;5058964;28;20458;-78
2021/09/18 04:42:52;;;;;;;1.97;1.50;;;;;;;13.82;100.00;100867.16;5057697;28;20447;-81
2021/09/18 04:45:19;;;;;;;4.20;2.00;;;;;;;13.84;100.00;100867.63;5057176;28;20445;-81
2021/09/18 04:47:45;;;;;;;3.10;2.20;;;;;;;13.78;100.00;100863.44;5057558;28;20492;-78
2021/09/18 04:50:13;;;;;;;1.83;1.50;;;;;;;13.71;100.00;100867.75;5059300;28;20515;-78
2021/09/18 04:52:40;;;;;;;4.13;2.37;;;;;;;13.74;100.00;100867.91;5057919;28;20809;-78
2021/09/18 04:55:07;;;;;;;3.70;2.63;;;;;;;13.76;100.00;100873.03;5058175;28;20434;-78
2021/09/18 04:57:34;;;;;;;4.00;2.10;;;;;;;13.75;100.00;100871.44;5057771;28;20446;-78
2021/09/18 05:00:00;;;;;;;3.57;2.00;;;;;;;13.70;100.00;100875.09;5056308;28;20790;-78
2021/09/18 05:02:27;;;;;;;3.57;2.40;;;;;;;13.69;100.00;100875.44;5057773;28;20446;-78
2021/09/18 05:04:53;;;;;;;2.40;1.60;;;;;;;13.66;100.00;100876.84;5057457;28;20446;-77
2021/09/18 05:07:22;;;;;;;2.87;1.90;;;;;;;13.61;100.00;100885.97;5057342;28;20485;-80
2021/09/18 05:09:48;;;;;;;1.73;1.40;;;;;;;13.61;100.00;100880.53;5057277;28;20442;-80
2021/09/18 05:12:14;;;;;;;2.97;1.70;;;;;;;13.60;100.00;100889.00;5057245;28;20442;-80
2021/09/18 05:14:41;;;;;;;2.07;1.30;;;;;;;13.61;100.00;100882.44;5057502;28;20450;-80
2021/09/18 05:17:07;;;;;;;1.77;1.40;;;;;;;13.62;100.00;100881.31;5057509;28;20959;-78
2021/09/18 05:19:34;;;;;;;2.43;1.80;;;;;;;13.63;100.00;100877.47;5059884;28;20826;-79
2021/09/18 05:22:00;;;;;;;2.13;1.70;;;;;;;13.61;100.00;100874.28;5060106;28;20489;-78
2021/09/18 05:24:29;;;;;;;2.00;1.30;;;;;;;13.62;100.00;100870.44;5060021;28;20443;-79
2021/09/18 05:26:55;;;;;;;2.10;1.20;;;;;;;13.58;100.00;100878.41;5059564;28;20549;-79
2021/09/18 05:29:22;;;;;;;2.03;1.37;;;;;;;13.63;100.00;100877.47;5060327;28;20453;-80
2021/09/18 05:31:48;;;;;;;2.70;1.40;;;;;;;13.62;100.00;100875.88;5060882;28;20474;-80
2021/09/18 05:34:15;;;;;;;13.30;1.47;;;;;;;13.62;100.00;100882.13;5060019;28;20438;-83
2021/09/18 05:36:41;;;;;;;2.30;1.90;;;;;;;13.59;100.00;100879.22;5058724;28;20473;-81
2021/09/18 05:39:08;;;;;;;1.37;1.20;;;;;;;13.59;100.00;100879.22;5063846;28;20438;-83
2021/09/18 05:41:36;;;;;;;1.10;1.00;;;;;;;13.62;100.00;100884.03;5070350;28;20466;-80
2021/09/18 05:44:02;;;;;;;1.53;1.40;;;;;;;13.66;100.00;100898.63;5066786;28;20442;-79
2021/09/18 05:46:29;;;;;;;1.70;1.37;;;;;;;13.69;100.00;100892.56;5067807;28;20478;-80
2021/09/18 05:48:55;;;;;;;1.00;0.87;;;;;;;13.75;100.00;100893.22;5067311;28;20457;-80
2021/09/18 05:51:22;;;;;;;4.13;1.93;;;;;;;13.75;100.00;100891.31;5065042;28;20469;-79
2021/09/18 05:53:48;;;;;;;1.33;1.20;;;;;;;13.77;100.00;100899.97;5060938;28;20475;-79
2021/09/18 05:56:15;;;;;;;1.27;0.90;;;;;;;13.75;100.00;100890.50;5060218;28;20441;-81
2021/09/18 05:58:43;;;;;;;1.70;1.20;;;;;;;13.76;100.00;100898.34;5061740;28;20967;-80
2021/09/18 06:01:09;;;;;;;1.57;0.93;;;;;;;13.73;100.00;100892.75;5059420;28;20470;-80
2021/09/18 06:03:36;;;;;;;1.87;1.33;;;;;;;13.76;100.00;100898.34;5058887;28;20454;-80
2021/09/18 06:06:03;;;;;;;1.50;1.40;;;;;;;13.77;100.00;100893.72;5058880;28;20442;-77
2021/09/18 06:08:30;;;;;;;2.83;1.93;;;;;;;13.79;100.00;100895.00;5060351;28;20433;-78
2021/09/18 06:10:56;;;;;;;2.93;1.50;;;;;;;13.83;100.00;100903.34;5060417;28;20489;-78
2021/09/18 06:13:23;;;;;;;3.90;1.93;;;;;;;13.87;100.00;100899.69;5038942;28;20462;-79
2021/09/18 06:15:51;;;;;;;1.83;1.00;;;;;;;13.93;100.00;100903.06;5037765;28;20944;-78
2021/09/18 06:18:17;;;;;;;2.57;2.00;;;;;;;13.97;100.00;100911.41;5038106;28;20458;-78
2021/09/18 06:20:46;;;;;;;2.33;2.00;;;;;;;14.00;100.00;100906.13;5037999;28;21011;-78
2021/09/18 06:23:13;;;;;;;2.77;1.13;;;;;;;13.98;100.00;100910.28;5037618;28;20439;-78
2021/09/18 06:26:14;;;;;;;2.03;1.43;;;;;;;13.95;100.00;100906.28;5037903;28;20442;-78
2021/09/18 06:28:41;;;;;;;3.67;1.60;;;;;;;14.00;100.00;100913.50;5037652;28;20431;-78
2021/09/18 06:31:09;;;;;;;3.37;2.03;;;;;;;14.01;100.00;100915.09;5037719;28;20467;-79
2021/09/18 06:33:36;;;;;;;1.77;1.20;;;;;;;14.03;100.00;100915.56;5037617;28;20439;-78
2021/09/18 06:36:02;;;;;;;2.50;1.70;;;;;;;14.06;100.00;100917.69;5037791;28;20443;-78
2021/09/18 06:38:29;;;;;;;3.13;1.73;;;;;;;14.03;100.00;100916.41;5038007;28;20456;-78
2021/09/18 06:40:56;;;;;;;2.17;1.97;;;;;;;14.03;100.00;100921.03;5037560;28;20470;-78
2021/09/18 06:43:24;;;;;;;1.53;1.37;;;;;;;14.10;100.00;100924.09;5038390;28;20446;-78
2021/09/18 06:45:52;;;;;;;1.90;1.00;;;;;;;14.17;100.00;100934.56;5038111;28;20443;-78
2021/09/18 06:48:19;;;;;;;1.70;1.13;;;;;;;14.26;100.00;100929.91;5037027;28;20483;-78
2021/09/18 06:50:46;;;;;;;3.13;1.80;;;;;;;14.34;100.00;100935.41;5037011;28;20486;-78
2021/09/18 06:53:12;;;;;;;3.03;1.90;;;;;;;14.30;100.00;100933.63;5037388;28;20451;-78
2021/09/18 06:55:39;;;;;;;3.07;2.00;;;;;;;14.36;100.00;100927.69;5037819;28;20446;-78
2021/09/18 06:58:06;;;;;;;3.30;1.97;;;;;;;14.43;100.00;100931.84;5038083;28;20439;-79
2021/09/18 07:00:33;;;;;;;1.83;1.53;;;;;;;14.50;100.00;100932.22;5038247;28;20471;-80
2021/09/18 07:03:00;;;;;;;5.73;2.20;;;;;;;14.60;100.00;100938.16;5037647;28;20454;-79
2021/09/18 07:05:27;;;;;;;3.00;2.40;;;;;;;14.62;100.00;100935.94;5037483;28;20816;-79
2021/09/18 07:07:54;;;;;;;4.03;2.03;;;;;;;14.67;100.00;100939.63;5037347;28;20479;-80
2021/09/18 07:10:20;;;;;;;1.43;1.30;;;;;;;14.78;100.00;100954.53;5037243;28;20542;-79
2021/09/18 07:12:47;;;;;;;4.63;2.50;;;;;;;14.85;100.00;100950.22;5037256;28;20443;-79
2021/09/18 07:15:14;;;;;;;2.47;1.53;;;;;;;14.94;100.00;100944.75;5037537;28;20447;-79
2021/09/18 07:17:40;;;;;;;6.47;2.53;;;;;;;14.93;100.00;100951.34;5037609;28;20439;-79
2021/09/18 07:20:08;;;;;;;2.27;1.90;;;;;;;15.04;100.00;100946.34;5037439;28;20482;-79
2021/09/18 07:22:36;;;;;;;2.93;2.10;;;;;;;15.11;100.00;100949.41;5037354;28;20443;-79
2021/09/18 07:25:04;;;;;;;4.53;2.10;;;;;;;15.16;100.00;100957.44;5038880;28;20462;-79
2021/09/18 07:27:30;;;;;;;2.60;2.10;;;;;;;15.13;100.00;100958.06;5037372;28;20490;-79
2021/09/18 07:29:57;;;;;;;6.80;2.37;;;;;;;15.21;100.00;100956.47;5037161;28;20443;-79
2021/09/18 07:32:25;;;;;;;3.80;2.27;;;;;;;15.29;100.00;100956.44;5037319;28;20442;-79
2021/09/18 07:34:51;;;;;;;11.43;2.40;;;;;;;15.34;100.00;100961.72;5036764;28;20458;-79
2021/09/18 07:37:18;;;;;;;2.90;2.03;;;;;;;15.39;100.00;100963.50;5036913;28;20435;-79
2021/09/18 07:39:46;;;;;;;4.33;2.87;;;;;;;15.43;100.00;100967.19;5037026;28;20855;-79
2021/09/18 07:42:12;;;;;;;4.20;2.60;;;;;;;15.56;100.00;100971.66;5037192;28;20454;-79
2021/09/18 07:44:39;;;;;;;3.53;2.47;;;;;;;15.71;100.00;100970.34;5036940;28;20450;-79
2021/09/18 07:47:05;;;;;;;1.83;1.73;;;;;;;15.89;100.00;100969.19;5037215;28;20505;-79
2021/09/18 07:49:32;;;;;;;2.40;1.93;;;;;;;16.02;100.00;100972.00;5036595;28;20835;-79
2021/09/18 07:51:59;;;;;;;3.50;2.10;;;;;;;16.11;100.00;100972.75;5037054;28;20478;-78
2021/09/18 07:54:25;;;;;;;2.50;2.00;;;;;;;16.24;100.00;100966.28;5037078;28;20925;-79
2021/09/18 07:56:53;;;;;;;1.73;1.07;;;;;;;16.37;100.00;100970.69;5037267;28;20439;-79
2021/09/18 07:59:19;;;;;;;1.50;1.33;;;;;;;16.52;100.00;100974.00;5037369;28;20454;-79
2021/09/18 08:01:47;;;;;;;1.70;1.40;;;;;;;16.62;100.00;100977.16;5035513;28;20486;-79
2021/09/18 08:04:13;;;;;;;1.67;1.30;;;;;;;16.62;100.00;100982.63;5036909;28;20475;-80
2021/09/18 08:06:40;;;;;;;2.30;1.40;;;;;;;16.76;100.00;100982.38;5036984;28;20436;-79
2021/09/18 08:09:08;;;;;;;1.47;1.23;;;;;;;16.80;100.00;100994.28;5036919;28;20451;-79
2021/09/18 08:11:34;;;;;;;3.20;1.50;;;;;;;16.75;100.00;100994.47;5036657;28;20499;-78
2021/09/18 08:14:03;;;;;;;1.47;1.37;;;;;;;16.82;100.00;100983.81;5036710;28;20446;-78
2021/09/18 08:16:30;;;;;;;4.70;1.77;;;;;;;16.76;100.00;100993.34;5035942;28;20470;-78
2021/09/18 08:18:57;;;;;;;1.50;1.17;;;;;;;16.74;100.00;100998.34;5037774;28;20462;-77
2021/09/18 08:21:23;;;;;;;2.30;1.17;;;;;;;16.77;100.00;100988.66;5039661;28;20543;-77
2021/09/18 08:23:50;;;;;;;1.33;1.00;;;;;;;16.71;100.00;100992.72;5037391;28;20462;-77
2021/09/18 08:26:16;;;;;;;2.70;1.70;;;;;;;16.57;100.00;100993.75;5036186;28;20463;-77
2021/09/18 08:28:43;;;;;;;1.40;0.97;;;;;;;16.70;100.00;100993.84;5036518;28;20865;-78
2021/09/18 08:31:11;;;;;;;1.40;1.03;;;;;;;16.84;100.00;100995.22;5038001;28;20470;-78
2021/09/18 08:33:37;;;;;;;1.00;0.80;;;;;;;16.95;100.00;100994.81;5037418;28;20451;-77
2021/09/18 08:36:04;;;;;;;1.17;1.07;;;;;;;16.99;100.00;101001.22;5036139;28;20458;-77
2021/09/18 08:38:31;;;;;;;1.10;1.00;;;;;;;17.07;100.00;101003.88;5036459;28;20447;-77
2021/09/18 08:40:57;;;;;;;1.60;1.17;;;;;;;17.16;100.00;101006.56;5036415;28;20466;-77
2021/09/18 08:43:24;;;;;;;0.60;0.60;;;;;;;17.31;100.00;101000.47;5035878;28;20458;-78
2021/09/18 08:45:50;;;;;;;2.60;0.57;;;;;;;17.57;100.00;100993.91;5034921;28;20447;-77
2021/09/18 08:48:18;;;;;;;0.60;0.60;;;;;;;17.75;100.00;101005.53;5034849;28;20991;-77
2021/09/18 08:50:49;;;;;;;2.80;0.80;;;;;;;17.97;100.00;101009.78;5035024;28;20459;-77
2021/09/18 08:53:15;;;;;;;3.43;0.80;;;;;;;18.03;100.00;101003.75;5035395;28;20791;-77
2021/09/18 08:55:42;;;;;;;1.17;0.80;;;;;;;18.03;98.31;101012.00;5035399;28;20451;-77
2021/09/18 08:58:08;;;;;;;0.87;0.73;;;;;;;18.19;97.92;101009.34;5036089;28;20447;-78
2021/09/18 09:00:46;;;;;;;0.83;0.83;;;;;;;18.24;96.72;101000.94;5035691;28;20542;-77
2021/09/18 09:03:14;;;;;;;0.83;0.50;;;;;;;18.38;97.10;101017.03;5035420;28;20435;-77
2021/09/18 09:05:44;;;;;;;2.10;0.90;;;;;;;18.28;96.39;101018.31;5034903;28;20454;-77
2021/09/18 09:08:12;;;;;;;2.03;0.70;;;;;;;18.26;95.82;101009.59;5034612;28;20491;-78
2021/09/18 09:10:42;;;;;;;0.60;0.60;;;;;;;18.34;94.99;101025.16;5035133;28;20470;-77
2021/09/18 09:13:11;;;;;;;1.03;0.70;;;;;;;18.43;94.31;101024.25;5035303;28;20501;-77
2021/09/18 09:15:38;;;;;;;0.50;0.50;;;;;;;18.36;93.38;101025.59;5036118;28;20453;-77
2021/09/18 09:18:22;;;;;;;0.60;0.47;;;;;;;18.24;94.02;101020.13;5035273;28;20956;-77
2021/09/18 09:20:51;;;;;;;0.70;0.50;;;;;;;18.18;95.60;101029.69;5036805;28;20469;-78
2021/09/18 09:23:21;;;;;;;1.30;0.70;;;;;;;17.98;97.10;101041.56;5035585;28;20518;-77
2021/09/18 09:25:50;;;;;;;0.50;0.40;;;;;;;17.62;98.93;101040.31;5034500;28;20443;-77
2021/09/18 09:28:28;;;;;;;0.50;0.30;;;;;;;17.31;100.00;101043.47;5035032;28;20490;-78
2021/09/18 09:31:00;;;;;;;0.90;0.50;;;;;;;17.13;100.00;101037.31;5035465;28;20471;-77
2021/09/18 09:33:27;;;;;;;1.13;0.40;;;;;;;16.95;100.00;101033.13;5034342;28;20497;-77
2021/09/18 09:35:55;;;;;;;0.70;0.40;;;;;;;16.99;100.00;101028.59;5036001;28;20439;-78
2021/09/18 09:38:21;;;;;;;0.50;0.40;;;;;;;17.07;100.00;101039.47;5036703;28;20439;-77
2021/09/18 09:40:49;;;;;;;0.57;0.50;;;;;;;17.17;100.00;101045.69;5035663;28;20474;-78
2021/09/18 09:43:19;;;;;;;1.53;0.43;;;;;;;17.18;100.00;101048.09;5035673;28;20450;-78
2021/09/18 09:45:46;;;;;;;0.50;0.40;;;;;;;17.12;100.00;101043.94;5035835;28;20447;-77
2021/09/18 09:48:15;;;;;;;0.87;0.40;;;;;;;16.89;100.00;101047.00;5034135;28;20483;-77
2021/09/18 09:50:44;;;;;;;1.90;0.80;;;;;;;16.91;100.00;101046.69;5034193;28;20470;-77
2021/09/18 09:53:25;;;;;;;0.70;0.60;;;;;;;17.08;100.00;101049.28;5033925;28;20436;-77
2021/09/18 09:55:52;;;;;;;0.50;0.47;;;;;;;17.12;100.00;101052.16;5034507;28;20427;-77
2021/09/18 09:58:18;;;;;;;3.17;0.60;;;;;;;17.30;100.00;101056.34;5034223;28;20447;-77
2021/09/18 10:00:49;;;;;;;0.90;0.60;;;;;;;17.53;100.00;101047.78;5034576;28;20471;-77
2021/09/18 10:03:19;;;;;;;0.70;0.40;;;;;;;17.82;100.00;101055.91;5033566;28;20420;-77
2021/09/18 10:05:46;;;;;;;0.60;0.40;;;;;;;18.19;100.00;101053.22;5034534;28;20446;-77
2021/09/18 10:08:14;;;;;;;1.10;0.47;;;;;;;18.25;100.00;101059.31;5033923;28;20490;-78
2021/09/18 10:10:42;;;;;;;0.60;0.40;;;;;;;18.26;99.70;101052.69;5034371;28;20481;-78
2021/09/18 10:13:11;;;;;;;0.50;0.40;;;;;;;18.38;99.58;101049.97;5035432;28;20463;-79
2021/09/18 10:15:38;;;;;;;0.83;0.40;;;;;;;18.43;99.61;101049.72;5036190;28;20941;-77
2021/09/18 10:18:05;;;;;;;0.40;0.30;;;;;;;18.40;100.00;101053.94;5033199;28;20959;-77
2021/09/18 10:23:20;;;;;;;0.53;0.40;;;;;;;17.80;99.06;101066.41;5036084;28;20414;-79
2021/09/18 10:25:50;;;;;;;0.77;0.40;;;;;;;17.50;99.47;101065.69;5039426;28;20526;-78
2021/09/18 10:28:19;;;;;;;0.60;0.40;;;;;;;17.28;99.68;101064.13;5039154;28;20487;-79
2021/09/18 10:30:48;;;;;;;0.70;0.30;;;;;;;17.04;99.33;101059.28;5038445;28;20479;-79
2021/09/18 10:33:36;;;;;;;1.03;0.53;;;;;;;17.07;100.00;101057.84;5038145;28;20435;-79
2021/09/18 10:36:07;;;;;;;0.90;0.63;;;;;;;17.30;100.00;101044.59;5037809;28;20427;-79
2021/09/18 10:38:35;;;;;;;0.97;0.40;;;;;;;17.58;100.00;101066.78;5038716;28;20441;-79
2021/09/18 10:41:16;;;;;;;0.90;0.40;;;;;;;17.78;95.98;101067.88;5038389;28;20459;-78
2021/09/18 10:43:45;;;;;;;0.77;0.40;;;;;;;17.93;94.72;101069.19;5037896;28;20963;-78
2021/09/18 10:46:32;;;;;;;0.53;0.40;;;;;;;18.26;95.61;101075.41;5038266;28;20458;-78
2021/09/18 10:48:59;;;;;;;0.60;0.40;;;;;;;18.51;92.93;101079.00;5036931;28;20489;-78
2021/09/18 10:51:39;;;;;;;0.50;0.30;;;;;;;18.57;91.75;101074.88;5037462;28;20520;-79
2021/09/18 10:54:09;;;;;;;1.10;0.50;;;;;;;18.53;90.76;101089.63;5038402;28;20948;-78
2021/09/18 10:57:03;;;;;;;0.60;0.50;;;;;;;18.48;89.58;101084.34;5037879;28;20451;-78
2021/09/18 10:59:44;;;;;;;3.07;0.50;;;;;;;18.43;90.83;101095.56;5037029;28;20937;-77
2021/09/18 11:02:41;;;;;;;0.50;0.30;;;;;;;18.23;90.25;101097.22;5038321;28;20438;-80
2021/09/18 11:05:09;;;;;;;0.50;0.40;;;;;;;18.13;90.10;101095.72;5037679;28;20779;-78
2021/09/18 11:07:43;;;;;;;0.50;0.43;;;;;;;18.26;92.13;101104.78;5037141;28;20447;-78
2021/09/18 11:10:12;;;;;;;4.87;0.50;;;;;;;18.22;92.58;101096.44;5036370;28;20467;-78
2021/09/18 11:12:40;;;;;;;0.50;0.30;;;;;;;18.20;92.67;101095.19;5036176;28;20443;-77
2021/09/18 11:15:09;;;;;;;0.60;0.40;;;;;;;18.33;91.43;101094.06;5036991;28;20447;-79
2021/09/18 11:17:42;;;;;;;0.50;0.40;;;;;;;18.33;91.80;101096.81;5036468;28;20442;-77
2021/09/18 11:20:13;;;;;;;3.27;0.67;;;;;;;18.31;91.28;101099.09;5036139;28;20488;-79
2021/09/18 11:22:40;;;;;;;0.50;0.40;;;;;;;18.30;91.65;101101.03;5036546;28;20452;-79
2021/09/18 11:25:31;;;;;;;0.70;0.40;;;;;;;18.35;90.21;101094.50;5037159;28;20492;-77
2021/09/18 11:28:03;;;;;;;0.50;0.50;;;;;;;18.65;89.91;101100.59;5036297;28;20487;-79
2021/09/18 11:30:41;;;;;;;0.60;0.40;;;;;;;18.73;85.55;101090.69;5037351;28;20463;-79
2021/09/18 11:33:08;;;;;;;1.10;0.57;;;;;;;18.51;85.70;101098.19;5037495;28;20454;-79